sensor_id;sensor_type;location;lat;lon;timestamp;P1;durP1;ratioP1;P2;durP2;ratioP2
37891;SDS011;45797;47.466;9.486;2023-03-30T00:04:53;8.13;;;1.30;;
37891;SDS011;45797;47.466;9.486;2023-03-30T00:09:53;7.13;;;1.55;;
37891;SDS011;45797;47.466;9.486;2023-03-30T00:14:54;9.50;;;1.33;;
37891;SDS011;45797;47.466;9.486;2023-03-30T00:19:55;8.18;;;1.25;;
37891;SDS011;45797;47.466;9.486;2023-03-30T00:24:58;3.63;;;1.00;;
37891;SDS011;45797;47.466;9.486;2023-03-30T00:29:59;5.78;;;1.02;;
37891;SDS011;45797;47.466;9.486;2023-03-30T00:35:01;5.35;;;1.10;;
37891;SDS011;45797;47.466;9.486;2023-03-30T00:40:13;8.18;;;1.58;;
37891;SDS011;45797;47.466;9.486;2023-03-30T00:45:26;4.70;;;1.30;;
37891;SDS011;45797;47.466;9.486;2023-03-30T00:56:02;5.38;;;0.90;;
37891;SDS011;45797;47.466;9.486;2023-03-30T01:01:09;5.03;;;1.42;;
37891;SDS011;45797;47.466;9.486;2023-03-30T01:06:16;6.80;;;1.40;;
37891;SDS011;45797;47.466;9.486;2023-03-30T01:11:38;6.50;;;1.90;;
37891;SDS011;45797;47.466;9.486;2023-03-30T01:28:26;7.18;;;1.20;;
37891;SDS011;45797;47.466;9.486;2023-03-30T01:45:02;4.95;;;1.55;;
37891;SDS011;45797;47.466;9.486;2023-03-30T01:55:48;5.05;;;1.10;;
37891;SDS011;45797;47.466;9.486;2023-03-30T02:00:54;2.35;;;0.80;;
37891;SDS011;45797;47.466;9.486;2023-03-30T02:06:05;6.28;;;1.15;;
37891;SDS011;45797;47.466;9.486;2023-03-30T02:11:19;7.13;;;1.30;;
37891;SDS011;45797;47.466;9.486;2023-03-30T02:26:50;6.45;;;1.40;;
37891;SDS011;45797;47.466;9.486;2023-03-30T02:31:56;6.43;;;1.63;;
37891;SDS011;45797;47.466;9.486;2023-03-30T02:48:28;7.35;;;1.15;;
37891;SDS011;45797;47.466;9.486;2023-03-30T02:59:36;7.95;;;1.25;;
37891;SDS011;45797;47.466;9.486;2023-03-30T03:04:40;6.53;;;1.20;;
37891;SDS011;45797;47.466;9.486;2023-03-30T03:10:09;10.02;;;1.40;;
37891;SDS011;45797;47.466;9.486;2023-03-30T03:15:19;2.95;;;0.90;;
37891;SDS011;45797;47.466;9.486;2023-03-30T03:20:37;6.10;;;1.40;;
37891;SDS011;45797;47.466;9.486;2023-03-30T03:31:01;4.18;;;1.27;;
37891;SDS011;45797;47.466;9.486;2023-03-30T03:41:10;8.35;;;1.00;;
37891;SDS011;45797;47.466;9.486;2023-03-30T03:46:27;4.97;;;0.90;;
37891;SDS011;45797;47.466;9.486;2023-03-30T03:56:40;4.22;;;1.08;;
37891;SDS011;45797;47.466;9.486;2023-03-30T04:06:47;7.15;;;1.15;;
37891;SDS011;45797;47.466;9.486;2023-03-30T04:11:56;4.53;;;1.20;;
37891;SDS011;45797;47.466;9.486;2023-03-30T04:17:31;12.65;;;1.50;;
37891;SDS011;45797;47.466;9.486;2023-03-30T04:22:59;4.18;;;0.93;;
37891;SDS011;45797;47.466;9.486;2023-03-30T04:28:25;7.50;;;1.30;;
37891;SDS011;45797;47.466;9.486;2023-03-30T04:33:54;5.28;;;1.52;;
37891;SDS011;45797;47.466;9.486;2023-03-30T04:39:14;6.10;;;1.08;;
37891;SDS011;45797;47.466;9.486;2023-03-30T04:44:40;6.88;;;0.88;;
37891;SDS011;45797;47.466;9.486;2023-03-30T04:49:55;4.55;;;1.00;;
37891;SDS011;45797;47.466;9.486;2023-03-30T04:55:29;8.88;;;1.05;;
37891;SDS011;45797;47.466;9.486;2023-03-30T05:01:02;8.88;;;1.17;;
37891;SDS011;45797;47.466;9.486;2023-03-30T05:06:31;4.47;;;1.20;;
37891;SDS011;45797;47.466;9.486;2023-03-30T05:28:50;4.10;;;1.10;;
37891;SDS011;45797;47.466;9.486;2023-03-30T05:34:21;7.88;;;1.42;;
37891;SDS011;45797;47.466;9.486;2023-03-30T05:39:38;1.90;;;0.73;;
37891;SDS011;45797;47.466;9.486;2023-03-30T05:50:36;3.35;;;0.80;;
37891;SDS011;45797;47.466;9.486;2023-03-30T05:55:44;6.95;;;0.88;;
37891;SDS011;45797;47.466;9.486;2023-03-30T06:01:27;3.38;;;0.80;;
37891;SDS011;45797;47.466;9.486;2023-03-30T06:06:28;2.17;;;0.75;;
37891;SDS011;45797;47.466;9.486;2023-03-30T06:11:31;5.22;;;0.85;;
37891;SDS011;45797;47.466;9.486;2023-03-30T06:16:52;3.55;;;0.95;;
37891;SDS011;45797;47.466;9.486;2023-03-30T06:21:55;4.45;;;1.40;;
37891;SDS011;45797;47.466;9.486;2023-03-30T06:27:17;4.18;;;1.45;;
37891;SDS011;45797;47.466;9.486;2023-03-30T06:32:28;5.82;;;1.00;;
37891;SDS011;45797;47.466;9.486;2023-03-30T06:38:07;8.50;;;1.40;;
37891;SDS011;45797;47.466;9.486;2023-03-30T06:43:12;5.82;;;1.40;;
37891;SDS011;45797;47.466;9.486;2023-03-30T06:48:29;6.38;;;1.40;;
37891;SDS011;45797;47.466;9.486;2023-03-30T06:53:50;4.97;;;1.20;;
37891;SDS011;45797;47.466;9.486;2023-03-30T06:58:52;5.22;;;1.45;;
37891;SDS011;45797;47.466;9.486;2023-03-30T07:03:54;8.00;;;1.70;;
37891;SDS011;45797;47.466;9.486;2023-03-30T07:09:05;3.38;;;0.98;;
37891;SDS011;45797;47.466;9.486;2023-03-30T07:14:09;5.20;;;1.20;;
37891;SDS011;45797;47.466;9.486;2023-03-30T07:19:11;10.77;;;1.35;;
37891;SDS011;45797;47.466;9.486;2023-03-30T07:24:12;8.80;;;1.65;;
37891;SDS011;45797;47.466;9.486;2023-03-30T07:29:15;7.10;;;1.70;;
37891;SDS011;45797;47.466;9.486;2023-03-30T07:34:20;4.18;;;1.40;;
37891;SDS011;45797;47.466;9.486;2023-03-30T07:39:28;7.13;;;1.50;;
37891;SDS011;45797;47.466;9.486;2023-03-30T07:44:29;6.47;;;1.35;;
37891;SDS011;45797;47.466;9.486;2023-03-30T07:49:35;6.95;;;1.70;;
37891;SDS011;45797;47.466;9.486;2023-03-30T07:54:51;7.85;;;1.70;;
37891;SDS011;45797;47.466;9.486;2023-03-30T08:00:02;4.80;;;1.65;;
37891;SDS011;45797;47.466;9.486;2023-03-30T08:05:22;7.18;;;1.45;;
37891;SDS011;45797;47.466;9.486;2023-03-30T08:10:37;6.22;;;1.30;;
37891;SDS011;45797;47.466;9.486;2023-03-30T08:15:38;5.70;;;1.15;;
37891;SDS011;45797;47.466;9.486;2023-03-30T08:25:45;2.75;;;0.98;;
37891;SDS011;45797;47.466;9.486;2023-03-30T08:30:47;4.50;;;1.20;;
37891;SDS011;45797;47.466;9.486;2023-03-30T08:46:33;8.75;;;1.75;;
37891;SDS011;45797;47.466;9.486;2023-03-30T08:51:34;9.32;;;1.55;;
37891;SDS011;45797;47.466;9.486;2023-03-30T08:56:39;7.13;;;1.33;;
37891;SDS011;45797;47.466;9.486;2023-03-30T09:02:02;10.02;;;2.00;;
37891;SDS011;45797;47.466;9.486;2023-03-30T09:12:21;7.82;;;1.20;;
37891;SDS011;45797;47.466;9.486;2023-03-30T09:17:32;6.22;;;1.52;;
37891;SDS011;45797;47.466;9.486;2023-03-30T09:23:01;3.40;;;1.30;;
37891;SDS011;45797;47.466;9.486;2023-03-30T09:34:03;6.32;;;1.50;;
37891;SDS011;45797;47.466;9.486;2023-03-30T09:39:24;7.50;;;1.73;;
37891;SDS011;45797;47.466;9.486;2023-03-30T09:44:41;6.22;;;1.67;;
37891;SDS011;45797;47.466;9.486;2023-03-30T09:49:46;5.97;;;1.33;;
37891;SDS011;45797;47.466;9.486;2023-03-30T09:54:52;8.32;;;2.03;;
37891;SDS011;45797;47.466;9.486;2023-03-30T10:05:13;5.80;;;1.60;;
37891;SDS011;45797;47.466;9.486;2023-03-30T10:15:36;7.65;;;1.60;;
37891;SDS011;45797;47.466;9.486;2023-03-30T10:25:54;10.38;;;1.40;;
37891;SDS011;45797;47.466;9.486;2023-03-30T10:31:02;5.50;;;1.55;;
37891;SDS011;45797;47.466;9.486;2023-03-30T10:36:13;5.88;;;1.80;;
37891;SDS011;45797;47.466;9.486;2023-03-30T10:41:18;7.78;;;2.08;;
37891;SDS011;45797;47.466;9.486;2023-03-30T10:46:23;6.22;;;1.50;;
37891;SDS011;45797;47.466;9.486;2023-03-30T11:07:50;5.18;;;1.90;;
37891;SDS011;45797;47.466;9.486;2023-03-30T11:13:00;10.23;;;2.50;;
37891;SDS011;45797;47.466;9.486;2023-03-30T11:23:38;7.07;;;1.63;;
37891;SDS011;45797;47.466;9.486;2023-03-30T11:34:42;4.22;;;1.40;;
37891;SDS011;45797;47.466;9.486;2023-03-30T11:44:40;3.25;;;1.15;;
37891;SDS011;45797;47.466;9.486;2023-03-30T12:06:23;3.53;;;1.25;;
37891;SDS011;45797;47.466;9.486;2023-03-30T12:11:34;2.55;;;1.05;;
37891;SDS011;45797;47.466;9.486;2023-03-30T12:16:52;1.92;;;0.85;;
37891;SDS011;45797;47.466;9.486;2023-03-30T12:22:43;2.97;;;0.90;;
37891;SDS011;45797;47.466;9.486;2023-03-30T12:32:34;3.53;;;1.10;;
37891;SDS011;45797;47.466;9.486;2023-03-30T12:37:41;3.63;;;1.20;;
37891;SDS011;45797;47.466;9.486;2023-03-30T13:27:22;3.53;;;1.70;;
37891;SDS011;45797;47.466;9.486;2023-03-30T13:53:12;3.58;;;1.50;;
37891;SDS011;45797;47.466;9.486;2023-03-30T13:58:30;8.95;;;2.20;;
37891;SDS011;45797;47.466;9.486;2023-03-30T14:03:46;8.52;;;2.85;;
37891;SDS011;45797;47.466;9.486;2023-03-30T14:14:06;5.28;;;2.53;;
37891;SDS011;45797;47.466;9.486;2023-03-30T14:30:00;3.85;;;2.10;;
37891;SDS011;45797;47.466;9.486;2023-03-30T14:35:16;3.63;;;1.90;;
37891;SDS011;45797;47.466;9.486;2023-03-30T14:40:28;4.55;;;2.10;;
37891;SDS011;45797;47.466;9.486;2023-03-30T14:45:30;5.05;;;2.42;;
37891;SDS011;45797;47.466;9.486;2023-03-30T14:50:32;5.93;;;2.33;;
37891;SDS011;45797;47.466;9.486;2023-03-30T14:55:35;4.60;;;2.30;;
37891;SDS011;45797;47.466;9.486;2023-03-30T15:00:37;3.92;;;2.03;;
37891;SDS011;45797;47.466;9.486;2023-03-30T15:05:40;4.68;;;2.17;;
37891;SDS011;45797;47.466;9.486;2023-03-30T15:10:49;4.57;;;1.98;;
37891;SDS011;45797;47.466;9.486;2023-03-30T15:15:54;6.10;;;2.28;;
37891;SDS011;45797;47.466;9.486;2023-03-30T15:21:07;4.93;;;2.20;;
37891;SDS011;45797;47.466;9.486;2023-03-30T15:26:24;4.55;;;2.15;;
37891;SDS011;45797;47.466;9.486;2023-03-30T15:36:39;4.93;;;1.98;;
37891;SDS011;45797;47.466;9.486;2023-03-30T15:41:57;4.55;;;2.40;;
37891;SDS011;45797;47.466;9.486;2023-03-30T15:46:59;4.47;;;2.10;;
37891;SDS011;45797;47.466;9.486;2023-03-30T15:52:00;6.63;;;2.30;;
37891;SDS011;45797;47.466;9.486;2023-03-30T16:02:15;6.88;;;2.33;;
37891;SDS011;45797;47.466;9.486;2023-03-30T16:12:37;6.07;;;2.40;;
37891;SDS011;45797;47.466;9.486;2023-03-30T16:17:42;5.18;;;2.45;;
37891;SDS011;45797;47.466;9.486;2023-03-30T16:22:43;7.60;;;2.60;;
37891;SDS011;45797;47.466;9.486;2023-03-30T16:27:45;5.00;;;2.67;;
37891;SDS011;45797;47.466;9.486;2023-03-30T16:32:47;7.93;;;3.08;;
37891;SDS011;45797;47.466;9.486;2023-03-30T16:37:48;7.03;;;2.85;;
37891;SDS011;45797;47.466;9.486;2023-03-30T16:43:04;6.60;;;3.08;;
37891;SDS011;45797;47.466;9.486;2023-03-30T16:48:20;5.90;;;2.78;;
37891;SDS011;45797;47.466;9.486;2023-03-30T16:53:24;5.13;;;2.67;;
37891;SDS011;45797;47.466;9.486;2023-03-30T16:58:31;6.57;;;2.92;;
37891;SDS011;45797;47.466;9.486;2023-03-30T17:03:32;5.88;;;2.80;;
37891;SDS011;45797;47.466;9.486;2023-03-30T17:08:45;5.50;;;2.80;;
37891;SDS011;45797;47.466;9.486;2023-03-30T17:13:45;5.30;;;2.83;;
37891;SDS011;45797;47.466;9.486;2023-03-30T17:18:48;7.10;;;3.33;;
37891;SDS011;45797;47.466;9.486;2023-03-30T17:23:50;6.07;;;2.95;;
37891;SDS011;45797;47.466;9.486;2023-03-30T17:28:51;7.57;;;2.92;;
37891;SDS011;45797;47.466;9.486;2023-03-30T17:33:51;5.32;;;2.90;;
37891;SDS011;45797;47.466;9.486;2023-03-30T17:38:52;4.95;;;2.90;;
37891;SDS011;45797;47.466;9.486;2023-03-30T17:43:53;4.97;;;2.95;;
37891;SDS011;45797;47.466;9.486;2023-03-30T17:48:54;6.50;;;2.78;;
37891;SDS011;45797;47.466;9.486;2023-03-30T17:54:01;6.93;;;2.45;;
37891;SDS011;45797;47.466;9.486;2023-03-30T18:04:23;11.88;;;3.00;;
37891;SDS011;45797;47.466;9.486;2023-03-30T18:09:25;5.88;;;2.67;;
37891;SDS011;45797;47.466;9.486;2023-03-30T18:14:36;9.60;;;3.00;;
37891;SDS011;45797;47.466;9.486;2023-03-30T18:19:37;4.57;;;2.45;;
37891;SDS011;45797;47.466;9.486;2023-03-30T18:24:37;6.80;;;2.88;;
37891;SDS011;45797;47.466;9.486;2023-03-30T18:29:37;6.35;;;3.05;;
37891;SDS011;45797;47.466;9.486;2023-03-30T18:34:38;6.85;;;3.10;;
37891;SDS011;45797;47.466;9.486;2023-03-30T18:39:42;4.20;;;2.80;;
37891;SDS011;45797;47.466;9.486;2023-03-30T18:44:45;5.70;;;2.60;;
37891;SDS011;45797;47.466;9.486;2023-03-30T18:49:47;8.70;;;2.70;;
37891;SDS011;45797;47.466;9.486;2023-03-30T19:00:15;7.70;;;2.90;;
37891;SDS011;45797;47.466;9.486;2023-03-30T19:05:27;6.63;;;3.55;;
37891;SDS011;45797;47.466;9.486;2023-03-30T19:10:31;5.47;;;2.95;;
37891;SDS011;45797;47.466;9.486;2023-03-30T19:15:37;9.20;;;3.08;;
37891;SDS011;45797;47.466;9.486;2023-03-30T19:20:39;6.03;;;2.92;;
37891;SDS011;45797;47.466;9.486;2023-03-30T19:25:42;5.05;;;2.85;;
37891;SDS011;45797;47.466;9.486;2023-03-30T19:30:43;5.65;;;2.90;;
37891;SDS011;45797;47.466;9.486;2023-03-30T19:35:44;6.57;;;2.88;;
37891;SDS011;45797;47.466;9.486;2023-03-30T19:40:44;6.38;;;2.45;;
37891;SDS011;45797;47.466;9.486;2023-03-30T19:50:50;5.82;;;2.88;;
37891;SDS011;45797;47.466;9.486;2023-03-30T19:55:52;5.53;;;2.72;;
37891;SDS011;45797;47.466;9.486;2023-03-30T20:00:55;7.00;;;2.72;;
37891;SDS011;45797;47.466;9.486;2023-03-30T20:06:06;9.15;;;3.13;;
37891;SDS011;45797;47.466;9.486;2023-03-30T20:11:09;7.60;;;2.83;;
37891;SDS011;45797;47.466;9.486;2023-03-30T20:16:12;7.50;;;2.75;;
37891;SDS011;45797;47.466;9.486;2023-03-30T20:21:26;7.07;;;3.10;;
37891;SDS011;45797;47.466;9.486;2023-03-30T20:26:26;7.28;;;3.13;;
37891;SDS011;45797;47.466;9.486;2023-03-30T20:31:30;5.72;;;3.22;;
37891;SDS011;45797;47.466;9.486;2023-03-30T20:41:39;6.50;;;2.72;;
37891;SDS011;45797;47.466;9.486;2023-03-30T20:46:41;7.05;;;2.90;;
37891;SDS011;45797;47.466;9.486;2023-03-30T20:51:43;7.20;;;2.92;;
37891;SDS011;45797;47.466;9.486;2023-03-30T20:56:51;5.25;;;2.60;;
37891;SDS011;45797;47.466;9.486;2023-03-30T21:02:02;6.90;;;3.28;;
37891;SDS011;45797;47.466;9.486;2023-03-30T21:07:10;5.65;;;2.85;;
37891;SDS011;45797;47.466;9.486;2023-03-30T21:12:12;7.75;;;3.00;;
37891;SDS011;45797;47.466;9.486;2023-03-30T21:17:14;7.60;;;2.90;;
37891;SDS011;45797;47.466;9.486;2023-03-30T21:22:16;6.55;;;2.75;;
37891;SDS011;45797;47.466;9.486;2023-03-30T21:27:18;4.75;;;2.55;;
37891;SDS011;45797;47.466;9.486;2023-03-30T21:32:20;6.30;;;2.75;;
37891;SDS011;45797;47.466;9.486;2023-03-30T21:37:28;5.07;;;2.72;;
37891;SDS011;45797;47.466;9.486;2023-03-30T21:42:34;8.93;;;3.15;;
37891;SDS011;45797;47.466;9.486;2023-03-30T21:47:44;9.52;;;2.58;;
37891;SDS011;45797;47.466;9.486;2023-03-30T21:53:19;5.07;;;2.80;;
37891;SDS011;45797;47.466;9.486;2023-03-30T21:58:22;5.45;;;2.90;;
37891;SDS011;45797;47.466;9.486;2023-03-30T22:08:28;7.53;;;3.05;;
37891;SDS011;45797;47.466;9.486;2023-03-30T22:13:34;8.85;;;2.85;;
37891;SDS011;45797;47.466;9.486;2023-03-30T22:18:37;6.88;;;3.28;;
37891;SDS011;45797;47.466;9.486;2023-03-30T22:23:39;4.75;;;2.75;;
37891;SDS011;45797;47.466;9.486;2023-03-30T22:28:42;10.88;;;3.10;;
37891;SDS011;45797;47.466;9.486;2023-03-30T22:33:42;6.22;;;2.35;;
37891;SDS011;45797;47.466;9.486;2023-03-30T22:44:01;5.03;;;2.80;;
37891;SDS011;45797;47.466;9.486;2023-03-30T22:49:03;5.22;;;2.63;;
37891;SDS011;45797;47.466;9.486;2023-03-30T22:59:15;6.53;;;2.90;;
37891;SDS011;45797;47.466;9.486;2023-03-30T23:04:16;6.78;;;3.08;;
37891;SDS011;45797;47.466;9.486;2023-03-30T23:09:17;5.45;;;2.40;;
37891;SDS011;45797;47.466;9.486;2023-03-30T23:19:27;5.60;;;2.60;;
37891;SDS011;45797;47.466;9.486;2023-03-30T23:24:28;6.80;;;3.05;;
37891;SDS011;45797;47.466;9.486;2023-03-30T23:34:34;5.95;;;2.65;;
37891;SDS011;45797;47.466;9.486;2023-03-30T23:39:36;5.63;;;2.85;;
37891;SDS011;45797;47.466;9.486;2023-03-30T23:44:43;8.98;;;3.00;;
37891;SDS011;45797;47.466;9.486;2023-03-30T23:49:46;5.28;;;2.90;;
37891;SDS011;45797;47.466;9.486;2023-03-30T23:54:47;8.77;;;3.20;;
